Time;durP1;ratioP1;P1;durP2;ratioP2;P2;SDS_P1;SDS_P2;PMS_P1;PMS_P2;Temp;Humidity;BMP_temperature;BMP_pressure;BME280_temperature;BME280_humidity;BME280_pressure;Samples;Min_cycle;Max_cycle;Signal;HPM_P1;HPM_P2
2022/09/30 00:00:55;;;;;;;8.15;7.47;;;;;;;8.07;100.00;97754.41;4116727;28;20209;-60
2022/09/30 00:02:56;;;;;;;8.43;7.60;;;;;;;8.07;100.00;97760.69;4115834;28;20233;-61
2022/09/30 00:04:58;;;;;;;7.22;6.63;;;;;;;8.06;100.00;97753.59;4116783;28;20209;-60
2022/09/30 00:06:59;;;;;;;6.43;5.85;;;;;;;8.13;100.00;97759.69;4120106;28;20824;-61
2022/09/30 00:09:02;;;;;;;6.50;5.68;;;;;;;8.10;100.00;97759.34;4117157;28;20203;-60
2022/09/30 00:11:05;;;;;;;6.68;6.18;;;;;;;8.11;100.00;97761.00;4123733;28;20566;-60
2022/09/30 00:13:06;;;;;;;8.27;7.57;;;;;;;8.10;100.00;97759.34;4118323;28;20980;-61
2022/09/30 00:15:08;;;;;;;8.30;7.50;;;;;;;7.91;100.00;97766.19;4119630;28;20209;-61
2022/09/30 00:17:10;;;;;;;7.07;6.45;;;;;;;7.88;100.00;97764.78;4121259;28;20233;-60
2022/09/30 00:19:12;;;;;;;6.55;6.05;;;;;;;7.88;100.00;97772.13;4107505;28;20211;-61
2022/09/30 00:21:14;;;;;;;8.27;7.78;;;;;;;7.87;100.00;97765.84;4119402;28;20210;-61
2022/09/30 00:23:16;;;;;;;8.70;8.13;;;;;;;7.88;100.00;97769.41;4124185;28;20237;-60
2022/09/30 00:25:17;;;;;;;7.93;7.20;;;;;;;7.91;100.00;97774.34;4118701;28;20213;-60
2022/09/30 00:27:20;;;;;;;7.05;6.47;;;;;;;7.93;100.00;97775.75;4119172;28;20202;-61
2022/09/30 00:29:21;;;;;;;8.82;8.15;;;;;;;7.86;100.00;97779.72;4118957;28;20221;-61
2022/09/30 00:31:25;;;;;;;7.05;6.30;;;;;;;7.87;100.00;97778.63;4117532;28;21968;-61
2022/09/30 00:33:27;;;;;;;6.63;6.13;;;;;;;7.86;100.00;97769.66;4115831;28;20230;-61
2022/09/30 00:35:28;;;;;;;7.25;6.65;;;;;;;7.86;100.00;97779.72;4118622;28;20256;-61
2022/09/30 00:37:30;;;;;;;6.63;6.10;;;;;;;7.89;100.00;97776.50;4119911;28;20634;-61
2022/09/30 00:39:31;;;;;;;5.53;5.10;;;;;;;7.95;100.00;97780.94;4116848;28;20203;-60
2022/09/30 00:41:33;;;;;;;6.20;5.63;;;;;;;7.91;100.00;97785.25;4119968;28;20221;-60
2022/09/30 00:43:42;;;;;;;6.22;5.68;;;;;;;7.82;100.00;97784.84;4117031;28;20785;-61
2022/09/30 00:45:50;;;;;;;6.45;5.95;;;;;;;7.80;100.00;97795.16;4121546;28;20378;-59
2022/09/30 00:47:56;;;;;;;6.13;5.60;;;;;;;7.83;100.00;97782.94;4121071;28;20252;-61
2022/09/30 00:50:02;;;;;;;6.38;5.88;;;;;;;7.87;100.00;97792.25;4119003;28;20221;-60
2022/09/30 00:52:04;;;;;;;7.53;6.90;;;;;;;7.79;100.00;97787.25;4123510;28;20206;-61
2022/09/30 00:54:09;;;;;;;6.70;6.20;;;;;;;7.78;100.00;97791.03;4121281;28;20218;-59
2022/09/30 00:56:26;;;;;;;7.03;6.53;;;;;;;7.70;100.00;97786.84;4122749;28;20241;-60
2022/09/30 00:58:50;;;;;;;7.18;6.68;;;;;;;7.64;100.00;97787.03;4109998;28;20202;-61
2022/09/30 01:00:52;;;;;;;7.22;6.63;;;;;;;7.71;100.00;97787.66;4115317;28;20206;-61
2022/09/30 01:02:54;;;;;;;6.47;5.97;;;;;;;7.70;100.00;97792.28;4118981;28;20235;-61
2022/09/30 01:04:56;;;;;;;7.38;6.53;;;;;;;7.74;100.00;97792.59;4133099;28;20244;-60
2022/09/30 01:07:00;;;;;;;6.15;5.75;;;;;;;7.74;100.00;97792.59;4120410;28;21449;-60
2022/09/30 01:09:02;;;;;;;7.40;6.85;;;;;;;7.72;100.00;97794.75;4125449;28;21697;-61
2022/09/30 01:11:04;;;;;;;4.90;4.50;;;;;;;7.65;100.00;97788.66;4118900;28;20286;-61
2022/09/30 01:13:08;;;;;;;6.00;5.60;;;;;;;7.59;100.00;97790.50;4121151;28;20229;-61
2022/09/30 01:15:11;;;;;;;6.57;6.05;;;;;;;7.59;100.00;97784.22;4120443;28;20207;-61
2022/09/30 01:17:19;;;;;;;7.72;6.63;;;;;;;7.57;100.00;97784.44;4139073;28;20210;-60
2022/09/30 01:19:32;;;;;;;6.15;5.75;;;;;;;7.51;100.00;97781.91;4125608;28;20252;-59
2022/09/30 01:22:08;;;;;;;5.03;4.53;;;;;;;7.45;100.00;97791.06;4120458;28;20209;-59
2022/09/30 01:24:28;;;;;;;5.88;5.45;;;;;;;7.39;100.00;97786.63;4117936;28;20927;-59
2022/09/30 01:26:49;;;;;;;10.05;5.38;;;;;;;7.37;100.00;97796.94;4122255;28;20199;-59
2022/09/30 01:29:27;;;;;;;6.22;5.75;;;;;;;7.34;100.00;97795.53;4125730;28;20655;-59
2022/09/30 01:31:55;;;;;;;6.18;5.68;;;;;;;7.40;100.00;97799.16;4118570;28;20298;-59
2022/09/30 01:34:06;;;;;;;6.10;5.57;;;;;;;7.42;100.00;97802.47;4124538;28;20221;-59
2022/09/30 01:36:10;;;;;;;5.18;4.78;;;;;;;7.34;100.00;97802.84;4120123;28;20211;-59
2022/09/30 01:38:20;;;;;;;5.68;5.28;;;;;;;7.25;100.00;97798.91;4120541;28;20210;-59
2022/09/30 01:40:47;;;;;;;6.10;5.70;;;;;;;7.20;100.00;97801.53;4108691;28;20206;-59
2022/09/30 01:42:58;;;;;;;7.18;6.68;;;;;;;7.26;100.00;97795.94;4133347;28;20650;-59
2022/09/30 01:45:06;;;;;;;7.07;5.15;;;;;;;7.25;100.00;97794.31;4120974;28;20213;-59
2022/09/30 01:47:16;;;;;;;7.03;6.00;;;;;;;7.23;100.00;97799.13;4120455;28;20205;-59
2022/09/30 01:49:38;;;;;;;6.90;6.25;;;;;;;7.24;100.00;97795.38;4118925;28;20648;-60
2022/09/30 01:51:56;;;;;;;6.00;5.50;;;;;;;7.19;100.00;97794.44;4121100;28;20198;-59
2022/09/30 01:54:04;;;;;;;8.65;5.53;;;;;;;7.24;100.00;97794.53;4123192;28;20234;-59
2022/09/30 01:56:22;;;;;;;6.43;5.82;;;;;;;7.28;100.00;97798.44;4121471;28;20197;-59
2022/09/30 01:58:38;;;;;;;19.15;7.68;;;;;;;7.23;100.00;97799.13;4122017;28;20215;-59
2022/09/30 02:00:42;;;;;;;7.03;6.43;;;;;;;7.24;100.00;97802.69;4117534;28;20213;-59
2022/09/30 02:02:55;;;;;;;6.95;6.40;;;;;;;7.25;100.00;97798.91;4121795;28;20253;-59
2022/09/30 02:05:00;;;;;;;6.47;5.95;;;;;;;7.21;100.00;97793.13;4116555;28;20209;-59
2022/09/30 02:07:06;;;;;;;6.47;6.03;;;;;;;7.18;100.00;97799.09;4120901;28;20210;-59
2022/09/30 02:09:16;;;;;;;7.68;5.07;;;;;;;7.18;100.00;97798.25;4117301;28;20248;-59
2022/09/30 02:11:24;;;;;;;4.90;4.60;;;;;;;7.23;100.00;97801.06;4121097;28;20220;-59
2022/09/30 02:13:36;;;;;;;6.05;5.65;;;;;;;7.25;100.00;97804.34;4122196;28;20222;-59
2022/09/30 02:15:41;;;;;;;10.07;6.45;;;;;;;7.20;100.00;97804.25;4126863;28;20864;-59
2022/09/30 02:17:46;;;;;;;9.00;6.30;;;;;;;7.18;100.00;97806.41;4124155;28;20210;-59
2022/09/30 02:19:57;;;;;;;6.95;6.53;;;;;;;7.09;100.00;97805.97;4121741;28;20202;-59
2022/09/30 02:22:04;;;;;;;6.65;6.25;;;;;;;7.17;100.00;97807.47;4122569;28;20206;-60
2022/09/30 02:24:09;;;;;;;6.22;5.70;;;;;;;7.12;100.00;97808.22;4103140;28;20227;-59
2022/09/30 02:26:17;;;;;;;5.85;5.15;;;;;;;7.13;100.00;97811.75;4118557;28;20210;-59
2022/09/30 02:28:22;;;;;;;6.43;5.88;;;;;;;7.17;100.00;97812.91;4117901;28;20213;-59
2022/09/30 02:30:24;;;;;;;6.68;6.18;;;;;;;7.12;100.00;97823.69;4104159;28;20294;-59
2022/09/30 02:32:38;;;;;;;7.07;6.47;;;;;;;7.07;100.00;97829.03;4132544;28;20757;-59
2022/09/30 02:34:44;;;;;;;7.03;6.43;;;;;;;7.08;100.00;97836.16;4120440;28;20198;-59
2022/09/30 02:36:50;;;;;;;8.13;5.65;;;;;;;7.13;100.00;97836.22;4116471;28;20198;-59
2022/09/30 02:39:15;;;;;;;24.95;6.72;;;;;;;7.07;100.00;97839.94;4117834;28;20760;-59
2022/09/30 02:41:24;;;;;;;6.50;6.00;;;;;;;7.08;100.00;97842.41;4120092;28;20460;-59
2022/09/30 02:43:26;;;;;;;6.60;5.93;;;;;;;7.11;100.00;97846.53;4118014;28;20234;-59
2022/09/30 02:45:30;;;;;;;12.50;5.53;;;;;;;7.12;100.00;97837.31;4118707;28;20484;-59
2022/09/30 02:47:57;;;;;;;30.63;6.22;;;;;;;7.09;100.00;97835.09;4130438;28;20209;-59
2022/09/30 02:50:14;;;;;;;11.70;4.55;;;;;;;7.08;100.00;97828.81;4120237;28;20210;-59
2022/09/30 02:52:26;;;;;;;15.98;5.45;;;;;;;7.06;100.00;97827.41;4121033;28;20205;-59
2022/09/30 02:54:40;;;;;;;5.00;4.60;;;;;;;6.97;100.00;97828.88;4117398;28;20198;-59
2022/09/30 02:56:49;;;;;;;5.43;5.05;;;;;;;7.14;100.00;97829.72;4117041;28;20236;-59
2022/09/30 02:58:51;;;;;;;7.25;5.35;;;;;;;7.15;100.00;97832.19;4116580;28;20210;-59
2022/09/30 03:00:53;;;;;;;5.57;5.18;;;;;;;7.08;100.00;97830.72;4119199;28;20624;-59
2022/09/30 03:02:59;;;;;;;6.30;5.15;;;;;;;6.96;100.00;97827.22;4119398;28;20360;-60
2022/09/30 03:05:02;;;;;;;5.47;5.05;;;;;;;6.80;100.00;97828.84;4121392;28;20210;-59
2022/09/30 03:07:03;;;;;;;4.53;4.22;;;;;;;6.92;100.00;97831.50;4120657;28;20213;-58
2022/09/30 03:09:05;;;;;;;5.70;5.30;;;;;;;6.93;100.00;97830.41;4117730;28;20206;-59
2022/09/30 03:11:08;;;;;;;7.35;4.45;;;;;;;6.96;100.00;97835.38;4120001;28;20234;-59
2022/09/30 03:13:47;;;;;;;4.32;3.97;;;;;;;6.96;100.00;97832.66;4117327;28;20226;-59
2022/09/30 03:16:04;;;;;;;5.75;4.40;;;;;;;6.81;100.00;97840.50;4119564;28;20214;-59
2022/09/30 03:18:44;;;;;;;5.38;4.88;;;;;;;6.51;100.00;97850.81;4118697;28;20290;-59
2022/09/30 03:21:08;;;;;;;4.30;4.00;;;;;;;6.60;100.00;97843.91;4114124;28;20662;-59
2022/09/30 03:23:26;;;;;;;3.40;3.20;;;;;;;6.62;100.00;97845.31;4100109;28;20665;-59
2022/09/30 03:25:58;;;;;;;4.05;3.80;;;;;;;6.69;100.00;97845.19;4135175;28;20589;-59
2022/09/30 03:28:18;;;;;;;3.38;3.17;;;;;;;6.70;100.00;97847.66;4118856;28;20212;-59
2022/09/30 03:30:25;;;;;;;3.35;3.15;;;;;;;6.83;100.00;97846.56;4116187;28;20207;-59
2022/09/30 03:33:02;;;;;;;2.92;2.72;;;;;;;6.79;100.00;97858.97;4115077;28;20256;-59
2022/09/30 03:35:25;;;;;;;22.15;5.07;;;;;;;6.80;100.00;97853.31;4099736;28;20608;-59
2022/09/30 03:37:33;;;;;;;3.20;2.90;;;;;;;6.88;100.00;97852.09;4112732;28;20221;-59
2022/09/30 03:40:10;;;;;;;3.40;3.10;;;;;;;6.37;100.00;97855.66;4116170;28;21143;-59
2022/09/30 03:42:17;;;;;;;3.75;3.45;;;;;;;6.24;100.00;97855.13;4088520;28;20268;-58
2022/09/30 03:45:05;;;;;;;14.68;2.90;;;;;;;6.36;100.00;97861.34;4114489;28;20218;-59
2022/09/30 03:47:12;;;;;;;10.23;3.10;;;;;;;6.43;100.00;97854.72;4119319;28;21160;-59
2022/09/30 03:49:23;;;;;;;3.00;2.80;;;;;;;6.38;100.00;97861.94;4115282;28;20217;-59
2022/09/30 03:51:25;;;;;;;3.28;2.30;;;;;;;6.44;100.00;97860.97;4122109;28;20644;-59
2022/09/30 03:53:27;;;;;;;3.70;3.42;;;;;;;6.53;100.00;97864.97;4115269;28;20242;-59
2022/09/30 03:55:30;;;;;;;13.85;3.42;;;;;;;6.43;100.00;97864.78;4115541;28;20209;-59
2022/09/30 03:57:31;;;;;;;3.85;3.30;;;;;;;6.45;100.00;97865.34;4117866;28;22064;-59
2022/09/30 03:59:33;;;;;;;3.53;3.30;;;;;;;6.45;100.00;97865.34;4117538;28;20214;-59
2022/09/30 04:01:34;;;;;;;21.02;3.92;;;;;;;6.50;100.00;97873.63;4111150;28;20303;-59
2022/09/30 04:03:36;;;;;;;4.63;3.08;;;;;;;6.37;100.00;97876.59;4114347;28;20222;-59
2022/09/30 04:05:38;;;;;;;3.47;3.22;;;;;;;6.45;100.00;97873.50;4131216;28;20211;-59
2022/09/30 04:07:39;;;;;;;3.58;3.38;;;;;;;6.46;100.00;97870.53;4118302;28;20206;-59
2022/09/30 04:09:41;;;;;;;3.13;2.92;;;;;;;6.55;100.00;97874.53;4119239;28;20220;-59
2022/09/30 04:11:42;;;;;;;2.80;2.60;;;;;;;6.62;100.00;97863.53;4117840;28;20674;-59
2022/09/30 04:13:44;;;;;;;12.15;3.58;;;;;;;6.60;100.00;97871.09;4116877;28;20721;-59
2022/09/30 04:15:53;;;;;;;58.72;4.82;;;;;;;6.59;100.00;97875.72;4115722;28;20257;-59
2022/09/30 04:17:55;;;;;;;2.67;2.45;;;;;;;6.42;100.00;97879.44;4116861;28;20213;-59
2022/09/30 04:19:57;;;;;;;4.82;2.53;;;;;;;6.34;100.00;97882.47;4114855;28;20741;-59
2022/09/30 04:21:58;;;;;;;12.10;3.17;;;;;;;6.20;100.00;97881.09;4120222;28;20312;-59
2022/09/30 04:24:00;;;;;;;10.98;2.85;;;;;;;6.19;100.00;97882.16;4118746;28;20628;-59
2022/09/30 04:26:04;;;;;;;8.95;2.88;;;;;;;6.16;100.00;97880.75;4118719;28;20210;-59
2022/09/30 04:28:05;;;;;;;3.42;3.22;;;;;;;6.29;100.00;97885.91;4122275;28;20210;-59
2022/09/30 04:30:07;;;;;;;3.20;3.00;;;;;;;6.09;100.00;97887.38;4117566;28;20256;-59
2022/09/30 04:32:09;;;;;;;9.30;3.60;;;;;;;6.17;100.00;97887.00;4119635;28;20207;-58
2022/09/30 04:34:10;;;;;;;8.38;3.58;;;;;;;6.28;100.00;97894.34;4118992;28;20325;-58
2022/09/30 04:36:12;;;;;;;9.10;2.60;;;;;;;6.40;100.00;97900.56;4122904;28;20217;-58
2022/09/30 04:38:14;;;;;;;25.55;3.42;;;;;;;6.37;100.00;97903.75;4119992;28;20836;-58
2022/09/30 04:40:16;;;;;;;3.45;3.25;;;;;;;6.24;100.00;97898.56;4122390;28;20206;-59
2022/09/30 04:42:17;;;;;;;6.90;2.95;;;;;;;6.32;100.00;97895.50;4119906;28;20218;-59
2022/09/30 04:44:19;;;;;;;200.07;9.30;;;;;;;5.91;100.00;97898.34;4119060;28;20675;-59
2022/09/30 04:46:24;;;;;;;2.50;2.40;;;;;;;6.17;100.00;97892.44;4118457;28;20222;-58
2022/09/30 04:48:27;;;;;;;22.17;2.83;;;;;;;6.13;100.00;97896.69;4133792;28;20758;-58
2022/09/30 04:50:30;;;;;;;6.95;2.45;;;;;;;6.03;100.00;97899.19;4119180;28;20218;-58
2022/09/30 04:52:31;;;;;;;24.88;2.30;;;;;;;6.05;100.00;97910.63;4117850;28;20216;-59
2022/09/30 04:54:33;;;;;;;7.22;3.30;;;;;;;6.02;100.00;97913.81;4117850;28;21096;-58
2022/09/30 04:56:34;;;;;;;33.40;2.70;;;;;;;5.91;100.00;97909.22;4120999;28;20214;-59
2022/09/30 04:58:36;;;;;;;2.45;2.35;;;;;;;5.95;100.00;97913.94;4120279;28;20295;-59
2022/09/30 05:00:38;;;;;;;11.88;2.30;;;;;;;6.05;100.00;97916.06;4125287;28;20210;-59
2022/09/30 05:02:42;;;;;;;1.90;1.80;;;;;;;6.00;100.00;97915.94;4120176;28;20296;-59
2022/09/30 05:04:44;;;;;;;2.40;2.20;;;;;;;6.02;100.00;97921.97;4120270;28;20238;-59
2022/09/30 05:06:45;;;;;;;2.17;2.08;;;;;;;6.11;100.00;97926.81;4126746;28;20233;-59
2022/09/30 05:08:47;;;;;;;2.67;2.03;;;;;;;6.07;100.00;97925.63;4120160;28;20938;-59
2022/09/30 05:10:59;;;;;;;4.72;2.53;;;;;;;6.08;100.00;97934.63;4121430;28;20233;-59
2022/09/30 05:13:00;;;;;;;3.40;2.10;;;;;;;6.12;100.00;97941.22;4120775;28;20234;-59
2022/09/30 05:15:03;;;;;;;1.63;1.52;;;;;;;6.18;100.00;97948.41;4120300;28;20203;-59
2022/09/30 05:17:05;;;;;;;2.50;2.25;;;;;;;6.32;100.00;97949.81;4123943;28;20264;-59
2022/09/30 05:19:06;;;;;;;3.03;2.85;;;;;;;6.26;100.00;97956.19;4121268;28;20210;-59
2022/09/30 05:21:09;;;;;;;13.65;3.17;;;;;;;6.30;100.00;97962.81;4119073;28;20202;-60
2022/09/30 05:23:10;;;;;;;2.42;2.33;;;;;;;6.34;100.00;97969.44;4118813;28;20230;-59
2022/09/30 05:25:12;;;;;;;71.70;4.85;;;;;;;6.33;100.00;97963.19;4119979;28;20227;-59
2022/09/30 05:27:13;;;;;;;2.58;2.38;;;;;;;6.36;100.00;97961.88;4121293;28;20206;-59
2022/09/30 05:29:15;;;;;;;2.78;2.58;;;;;;;6.38;100.00;97955.16;4117779;28;20238;-59
2022/09/30 05:31:16;;;;;;;2.90;2.75;;;;;;;6.33;100.00;97962.34;4118361;28;20582;-59
2022/09/30 05:33:18;;;;;;;3.55;2.60;;;;;;;6.34;100.00;97961.28;4117950;28;20304;-59
2022/09/30 05:35:19;;;;;;;2.75;2.55;;;;;;;6.35;100.00;97968.38;4117314;28;20206;-59
2022/09/30 05:37:21;;;;;;;3.40;2.97;;;;;;;6.36;100.00;97967.31;4117607;28;20662;-59
2022/09/30 05:39:22;;;;;;;2.83;2.63;;;;;;;6.39;100.00;97974.97;4118534;28;20261;-61
2022/09/30 05:41:24;;;;;;;5.00;2.63;;;;;;;6.43;100.00;97978.88;4118800;28;20268;-61
2022/09/30 05:43:26;;;;;;;3.28;3.00;;;;;;;6.28;100.00;97983.97;4109642;28;20241;-60
2022/09/30 05:45:28;;;;;;;2.80;2.60;;;;;;;6.36;100.00;97979.00;4121035;28;20249;-60
2022/09/30 05:47:29;;;;;;;2.80;2.60;;;;;;;6.29;100.00;97988.34;4121992;28;20618;-59
2022/09/30 05:49:33;;;;;;;2.97;2.78;;;;;;;6.32;100.00;97987.84;4121250;28;20281;-60
2022/09/30 05:51:35;;;;;;;3.22;3.03;;;;;;;6.31;100.00;97992.47;4121196;28;20206;-60
2022/09/30 05:53:37;;;;;;;6.38;3.70;;;;;;;6.20;100.00;97995.16;4119011;28;20233;-60
2022/09/30 05:55:39;;;;;;;4.20;2.92;;;;;;;6.20;100.00;98000.59;4117593;28;20221;-59
2022/09/30 05:57:41;;;;;;;3.42;3.22;;;;;;;6.19;100.00;97998.97;4117503;28;20248;-60
2022/09/30 05:59:43;;;;;;;3.22;3.03;;;;;;;6.24;100.00;98001.81;4119041;28;20210;-59
2022/09/30 06:01:44;;;;;;;4.32;2.67;;;;;;;6.30;100.00;98003.56;4114315;28;20215;-59
2022/09/30 06:03:47;;;;;;;3.10;2.90;;;;;;;6.35;100.00;98009.94;4135398;28;20320;-60
2022/09/30 06:05:55;;;;;;;3.90;3.28;;;;;;;6.37;100.00;98007.81;4119888;28;20222;-60
2022/09/30 06:07:56;;;;;;;3.72;3.35;;;;;;;6.50;100.00;98006.78;4137844;28;20197;-58
2022/09/30 06:09:58;;;;;;;5.28;3.25;;;;;;;6.40;100.00;98001.09;4122016;28;20214;-60
2022/09/30 06:12:00;;;;;;;4.00;3.70;;;;;;;6.41;100.00;98010.88;4123089;28;20672;-60
2022/09/30 06:14:01;;;;;;;3.25;3.05;;;;;;;6.45;100.00;98012.91;4115750;28;20226;-60
2022/09/30 06:16:04;;;;;;;3.75;3.35;;;;;;;6.45;100.00;98020.22;4115537;28;21148;-60
2022/09/30 06:18:06;;;;;;;32.63;5.50;;;;;;;6.43;100.00;98014.22;4118963;28;20258;-60
2022/09/30 06:20:09;;;;;;;3.72;3.42;;;;;;;6.45;100.00;98020.22;4114269;28;20643;-58
2022/09/30 06:22:11;;;;;;;4.15;3.75;;;;;;;6.46;100.00;98024.59;4119547;28;20232;-59
2022/09/30 06:24:13;;;;;;;3.92;3.65;;;;;;;6.44;100.00;98015.88;4121349;28;20268;-59
2022/09/30 06:26:15;;;;;;;4.00;3.47;;;;;;;6.49;100.00;98016.00;4116845;28;20577;-59
2022/09/30 06:28:17;;;;;;;8.52;3.97;;;;;;;6.49;100.00;98016.81;4115421;28;20210;-59
2022/09/30 06:30:18;;;;;;;12.25;3.55;;;;;;;6.40;100.00;98017.38;4117221;28;20214;-59
2022/09/30 06:32:20;;;;;;;9.73;3.78;;;;;;;6.42;100.00;98020.72;4117725;28;20210;-59
2022/09/30 06:34:22;;;;;;;7.00;3.72;;;;;;;6.21;100.00;98029.41;4118768;28;20206;-59
2022/09/30 06:36:24;;;;;;;34.50;5.80;;;;;;;5.99;100.00;98020.19;4120393;28;20262;-59
2022/09/30 06:38:27;;;;;;;24.58;4.45;;;;;;;5.76;100.00;98033.69;4118127;28;20225;-59
2022/09/30 06:40:29;;;;;;;5.65;4.03;;;;;;;5.86;100.00;98028.53;4117820;28;20206;-59
2022/09/30 06:42:30;;;;;;;24.67;5.00;;;;;;;5.97;100.00;98033.16;4118922;28;20221;-59
2022/09/30 06:44:32;;;;;;;3.45;3.25;;;;;;;6.01;100.00;98023.47;4119458;28;22391;-59
2022/09/30 06:46:47;;;;;;;3.88;3.60;;;;;;;6.14;100.00;98034.13;4119794;28;20218;-59
2022/09/30 06:48:55;;;;;;;4.95;3.67;;;;;;;6.26;100.00;98038.53;4116496;28;20326;-61
2022/09/30 06:51:09;;;;;;;129.93;8.07;;;;;;;6.12;100.00;98036.25;4121976;28;20224;-59
2022/09/30 06:53:12;;;;;;;6.10;4.05;;;;;;;6.02;100.00;98041.47;4118899;28;20342;-60
2022/09/30 06:55:13;;;;;;;3.63;3.38;;;;;;;6.21;100.00;98037.56;4118089;28;20779;-61
2022/09/30 06:57:15;;;;;;;5.03;4.50;;;;;;;6.26;100.00;98037.69;4118530;28;20230;-62
2022/09/30 06:59:17;;;;;;;65.75;5.78;;;;;;;6.12;100.00;98047.97;4118868;28;20221;-62
2022/09/30 07:01:19;;;;;;;16.98;4.55;;;;;;;6.02;100.00;98058.56;4122057;28;20207;-61
2022/09/30 07:03:24;;;;;;;4.20;3.90;;;;;;;6.22;100.00;98058.25;4119814;28;20961;-61
2022/09/30 07:05:26;;;;;;;9.98;4.40;;;;;;;6.35;100.00;98060.75;4144423;22;20234;-46
2022/09/30 07:07:28;;;;;;;5.40;5.00;;;;;;;6.35;100.00;98058.03;4133346;28;20209;-46
2022/09/30 07:09:30;;;;;;;19.67;5.30;;;;;;;6.44;100.00;98064.78;4123648;28;20206;-47
2022/09/30 07:11:33;;;;;;;5.22;4.68;;;;;;;6.41;100.00;98067.94;4103991;28;20217;-47
2022/09/30 07:13:34;;;;;;;5.63;4.40;;;;;;;6.48;100.00;98079.56;4126668;28;20226;-48
2022/09/30 07:15:37;;;;;;;4.82;4.13;;;;;;;6.57;100.00;98083.56;4104109;28;20870;-48
2022/09/30 07:17:39;;;;;;;4.60;4.30;;;;;;;6.70;100.00;98088.78;4120108;28;20615;-47
2022/09/30 07:19:41;;;;;;;10.52;4.93;;;;;;;6.68;100.00;98086.28;4119959;28;20210;-47
2022/09/30 07:21:43;;;;;;;4.80;4.35;;;;;;;6.64;100.00;98090.56;4124397;28;20208;-48
2022/09/30 07:23:48;;;;;;;123.43;9.25;;;;;;;6.68;100.00;98088.22;4103391;28;20324;-47
2022/09/30 07:25:52;;;;;;;29.48;5.10;;;;;;;6.54;100.00;98090.31;4119623;28;20214;-48
2022/09/30 07:27:55;;;;;;;5.32;4.85;;;;;;;6.71;100.00;98085.00;4123862;28;20707;-47
2022/09/30 07:29:58;;;;;;;6.28;4.93;;;;;;;6.73;100.00;98088.28;4121246;28;20923;-48
2022/09/30 07:32:20;;;;;;;4.80;4.38;;;;;;;6.90;100.00;98094.69;4126325;28;20201;-47
2022/09/30 07:34:23;;;;;;;31.77;4.88;;;;;;;6.48;100.00;98093.97;4122012;28;20206;-47
2022/09/30 07:36:31;;;;;;;8.07;4.63;;;;;;;6.47;100.00;98083.31;4122204;28;20259;-47
2022/09/30 07:38:38;;;;;;;16.50;5.03;;;;;;;6.49;100.00;98086.66;4126421;28;20279;-47
2022/09/30 07:40:41;;;;;;;15.60;6.00;;;;;;;6.65;100.00;98084.06;4127920;28;20308;-47
2022/09/30 07:42:44;;;;;;;15.98;5.35;;;;;;;6.42;100.00;98085.94;4126987;28;20261;-48
2022/09/30 07:44:47;;;;;;;7.45;6.65;;;;;;;6.80;100.00;98083.56;4114316;28;20261;-47
2022/09/30 07:46:50;;;;;;;11.52;5.80;;;;;;;6.84;100.00;98096.47;4117516;28;20206;-48
2022/09/30 07:48:55;;;;;;;7.70;6.18;;;;;;;6.97;100.00;98089.97;4124744;28;20297;-48
2022/09/30 07:50:57;;;;;;;7.28;6.65;;;;;;;7.15;100.00;98103.44;4125224;28;20220;-49
2022/09/30 07:52:58;;;;;;;8.02;7.32;;;;;;;7.33;100.00;98109.56;4124757;28;20257;-48
2022/09/30 07:55:00;;;;;;;9.07;8.05;;;;;;;7.40;100.00;98114.84;4120008;28;20207;-48
2022/09/30 07:57:03;;;;;;;11.73;10.52;;;;;;;7.48;100.00;98119.94;4103966;28;20203;-49
2022/09/30 07:59:12;;;;;;;10.50;9.23;;;;;;;7.66;100.00;98119.75;4121280;28;20587;-47
2022/09/30 08:01:15;;;;;;;33.67;6.53;;;;;;;7.66;100.00;98122.47;4120625;28;20233;-48
2022/09/30 08:03:17;;;;;;;8.07;5.47;;;;;;;7.72;100.00;98116.06;4119347;28;20329;-48
2022/09/30 08:05:18;;;;;;;4.85;4.45;;;;;;;7.78;100.00;98121.41;4124855;28;20320;-49
2022/09/30 08:07:20;;;;;;;39.05;6.22;;;;;;;7.69;100.00;98122.81;4115619;28;20648;-47
2022/09/30 08:09:23;;;;;;;5.68;5.28;;;;;;;7.64;100.00;98119.19;4117424;28;20289;-47
2022/09/30 08:11:25;;;;;;;13.30;4.93;;;;;;;7.78;100.00;98126.00;4099367;28;20211;-48
2022/09/30 08:13:27;;;;;;;5.03;4.60;;;;;;;7.87;100.00;98119.09;4117416;28;20313;-48
2022/09/30 08:15:29;;;;;;;5.05;4.53;;;;;;;7.84;100.00;98116.88;4115408;28;20210;-49
2022/09/30 08:17:31;;;;;;;4.78;4.38;;;;;;;7.78;100.00;98124.13;4121545;28;20683;-48
2022/09/30 08:19:33;;;;;;;4.85;4.55;;;;;;;7.72;100.00;98126.97;4118593;28;20332;-47
2022/09/30 08:21:35;;;;;;;13.45;5.28;;;;;;;7.70;100.00;98123.66;4102773;28;20245;-48
2022/09/30 08:23:37;;;;;;;11.30;5.47;;;;;;;7.47;100.00;98120.97;4118167;28;20321;-47
2022/09/30 08:25:38;;;;;;;6.88;4.78;;;;;;;7.60;100.00;98124.28;4122211;28;20313;-48
2022/09/30 08:27:40;;;;;;;29.60;4.93;;;;;;;7.54;100.00;98129.84;4118721;28;20246;-48
2022/09/30 08:29:44;;;;;;;4.80;3.80;;;;;;;7.54;100.00;98132.56;4120986;28;20285;-48
2022/09/30 08:32:05;;;;;;;4.43;4.15;;;;;;;7.51;100.00;98135.78;4103269;28;20207;-48
2022/09/30 08:34:07;;;;;;;4.50;3.83;;;;;;;7.66;100.00;98138.81;4119776;28;20215;-48
2022/09/30 08:36:15;;;;;;;14.60;5.47;;;;;;;7.74;100.00;98141.16;4112131;28;20206;-48
2022/09/30 08:38:17;;;;;;;20.33;5.47;;;;;;;7.70;100.00;98140.00;4114952;28;20296;-48
2022/09/30 08:40:30;;;;;;;8.65;7.18;;;;;;;8.04;100.00;98136.31;4120836;28;20205;-48
2022/09/30 08:42:55;;;;;;;5.93;5.53;;;;;;;8.31;100.00;98145.59;4123661;28;20221;-48
2022/09/30 08:45:30;;;;;;;4.95;4.55;;;;;;;8.43;100.00;98138.19;4100369;28;20339;-48
2022/09/30 08:47:41;;;;;;;4.55;3.67;;;;;;;8.34;100.00;98142.41;4121856;28;20218;-48
2022/09/30 08:49:52;;;;;;;4.72;4.32;;;;;;;8.59;100.00;98142.81;4115130;28;20211;-49
2022/09/30 08:51:54;;;;;;;4.65;4.25;;;;;;;8.87;100.00;98148.19;4116640;28;20206;-48
2022/09/30 08:53:58;;;;;;;4.95;4.65;;;;;;;8.72;100.00;98145.22;4114595;28;20240;-48
2022/09/30 08:56:01;;;;;;;6.13;5.38;;;;;;;8.99;100.00;98143.50;4119861;28;20198;-47
2022/09/30 08:58:04;;;;;;;5.00;4.70;;;;;;;9.14;100.00;98152.75;4118299;28;20217;-48
2022/09/30 09:00:10;;;;;;;6.60;5.50;;;;;;;9.35;100.00;98151.16;4116843;28;20293;-49
2022/09/30 09:02:18;;;;;;;5.85;5.45;;;;;;;9.18;100.00;98150.34;4105762;28;20221;-48
2022/09/30 09:04:19;;;;;;;6.07;5.68;;;;;;;9.03;100.00;98152.84;4118641;28;20742;-49
2022/09/30 09:06:43;;;;;;;6.07;5.65;;;;;;;8.99;100.00;98148.94;4121716;28;20602;-48
2022/09/30 09:09:15;;;;;;;10.55;5.45;;;;;;;9.52;100.00;98152.78;4115454;28;20221;-48
2022/09/30 09:11:52;;;;;;;6.07;5.68;;;;;;;9.82;100.00;98153.16;4127918;28;20296;-48
2022/09/30 09:14:01;;;;;;;6.43;5.80;;;;;;;9.76;100.00;98161.56;4098091;28;20275;-48
2022/09/30 09:16:33;;;;;;;6.45;5.85;;;;;;;10.56;100.00;98157.06;4121976;28;20214;-48
2022/09/30 09:18:42;;;;;;;36.65;33.90;;;;;;;11.87;100.00;98158.63;4116596;28;20206;-47
2022/09/30 09:20:58;;;;;;;9.30;8.60;;;;;;;12.50;96.66;98165.72;4121794;28;20252;-48
2022/09/30 09:23:02;;;;;;;19.17;6.35;;;;;;;12.24;93.98;98170.28;4122118;28;20226;-48
2022/09/30 09:25:04;;;;;;;6.63;6.13;;;;;;;12.28;93.64;98170.56;4126240;28;20261;-46
2022/09/30 09:27:15;;;;;;;7.32;5.57;;;;;;;12.70;88.90;98165.75;4123023;28;20230;-48
2022/09/30 09:29:44;;;;;;;5.93;5.43;;;;;;;13.50;91.42;98161.09;4127824;28;20609;-47
2022/09/30 09:31:47;;;;;;;4.93;4.53;;;;;;;13.82;87.33;98167.09;4125925;28;20242;-47
2022/09/30 09:33:49;;;;;;;4.70;4.30;;;;;;;13.58;85.28;98165.22;4105815;28;20230;-47
2022/09/30 09:36:26;;;;;;;11.00;3.85;;;;;;;13.07;85.78;98169.09;4108020;28;20293;-46
2022/09/30 09:38:40;;;;;;;5.03;4.72;;;;;;;13.31;84.74;98162.75;4084875;28;20220;-47
2022/09/30 09:41:06;;;;;;;4.93;4.47;;;;;;;13.93;87.79;98163.22;4114839;28;20207;-47
2022/09/30 09:43:19;;;;;;;5.05;4.40;;;;;;;14.33;86.30;98174.09;4130303;28;20807;-47
2022/09/30 09:45:55;;;;;;;4.47;4.18;;;;;;;14.91;84.78;98170.44;4119265;28;20230;-49
2022/09/30 09:47:58;;;;;;;4.10;3.80;;;;;;;15.31;83.97;98170.09;4110588;28;20237;-48
2022/09/30 09:50:03;;;;;;;3.95;3.65;;;;;;;15.63;80.42;98178.69;4103471;28;20206;-48
2022/09/30 09:52:13;;;;;;;4.78;4.07;;;;;;;15.61;81.69;98180.91;4117431;28;21060;-48
2022/09/30 09:54:20;;;;;;;4.03;3.83;;;;;;;15.81;80.54;98177.13;4122361;28;21122;-48
2022/09/30 09:56:26;;;;;;;3.10;2.90;;;;;;;15.33;80.85;98176.22;4118643;28;20206;-48